createdAt,value
2022-11-24T00:04:56.086Z,4.68
2022-11-24T00:09:57.460Z,4.52
2022-11-24T00:14:58.877Z,4.38
2022-11-24T00:20:00.229Z,4.36
2022-11-24T00:25:01.686Z,4.15
2022-11-24T00:30:03.166Z,4.19
2022-11-24T00:35:04.893Z,4.18
2022-11-24T00:40:06.830Z,4.16
2022-11-24T00:45:13.768Z,4.10
2022-11-24T00:50:16.021Z,4.32
2022-11-24T00:55:17.342Z,4.47
2022-11-24T01:00:18.780Z,5.04
2022-11-24T01:05:20.386Z,5.34
2022-11-24T01:10:21.723Z,5.27
2022-11-24T01:15:23.537Z,5.66
2022-11-24T01:20:24.843Z,6.05
2022-11-24T01:25:26.193Z,5.94
2022-11-24T01:30:27.526Z,6.17
2022-11-24T01:35:28.841Z,6.39
2022-11-24T01:40:30.266Z,6.32
2022-11-24T01:45:33.201Z,5.99
2022-11-24T01:50:35.646Z,5.98
2022-11-24T01:55:38.067Z,5.65
2022-11-24T02:00:41.066Z,5.49
2022-11-24T02:05:51.090Z,5.29
2022-11-24T02:10:52.702Z,4.99
2022-11-24T02:15:54.343Z,4.83
2022-11-24T02:20:56.071Z,4.71
2022-11-24T02:26:12.967Z,4.76
2022-11-24T02:31:14.395Z,4.64
2022-11-24T02:36:15.915Z,5.11
2022-11-24T02:41:20.070Z,4.98
2022-11-24T02:46:21.562Z,4.85
2022-11-24T02:51:23.055Z,4.71
2022-11-24T02:56:25.707Z,4.54
2022-11-24T03:01:27.149Z,4.47
2022-11-24T03:06:28.587Z,4.60
2022-11-24T03:11:29.946Z,4.75
2022-11-24T03:16:31.523Z,4.94
2022-11-24T03:21:32.989Z,5.05
2022-11-24T03:26:34.776Z,5.41
2022-11-24T03:31:36.140Z,5.77
2022-11-24T03:36:37.497Z,5.69
2022-11-24T03:41:38.967Z,5.74
2022-11-24T03:46:40.470Z,5.75
2022-11-24T03:51:41.860Z,5.91
2022-11-24T03:56:43.164Z,6.09
2022-11-24T04:01:44.869Z,6.12
2022-11-24T04:06:46.323Z,6.40
2022-11-24T04:12:06.359Z,6.38
2022-11-24T04:17:07.684Z,6.64
2022-11-24T04:22:09.120Z,6.64
2022-11-24T04:27:10.425Z,6.81
2022-11-24T04:32:11.798Z,6.96
2022-11-24T04:37:13.113Z,7.30
2022-11-24T04:42:14.478Z,7.47
2022-11-24T04:47:21.129Z,7.58
2022-11-24T04:52:23.226Z,7.60
2022-11-24T04:57:25.802Z,7.45
2022-11-24T05:02:27.118Z,7.41
2022-11-24T05:07:28.690Z,7.53
2022-11-24T05:12:33.135Z,7.74
2022-11-24T05:17:35.812Z,7.65
2022-11-24T05:22:37.226Z,7.43
2022-11-24T05:27:38.589Z,7.17
2022-11-24T05:32:40.188Z,6.95
2022-11-24T05:37:41.541Z,6.79
2022-11-24T05:42:47.186Z,6.75
2022-11-24T05:47:50.378Z,6.94
2022-11-24T05:52:51.764Z,7.03
2022-11-24T05:57:57.920Z,7.00
2022-11-24T06:02:59.933Z,6.96
2022-11-24T06:08:01.395Z,6.87
2022-11-24T06:13:06.094Z,6.82
2022-11-24T06:18:07.459Z,6.68
2022-11-24T06:23:08.758Z,6.59
2022-11-24T06:28:10.109Z,6.48
2022-11-24T06:33:11.425Z,6.41
2022-11-24T06:38:12.734Z,6.43
2022-11-24T06:43:15.155Z,6.41
2022-11-24T06:48:16.514Z,6.34
2022-11-24T06:53:17.947Z,6.32
2022-11-24T06:58:19.257Z,6.27
2022-11-24T07:03:20.772Z,6.23
2022-11-24T07:08:22.165Z,6.28
2022-11-24T07:13:23.514Z,6.36
2022-11-24T07:18:24.832Z,6.39
2022-11-24T07:23:26.147Z,6.29
2022-11-24T07:28:27.458Z,6.34
2022-11-24T07:33:28.833Z,6.44
2022-11-24T07:38:31.570Z,6.47
2022-11-24T07:43:33.901Z,6.47
2022-11-24T07:48:35.269Z,6.51
2022-11-24T07:53:37.221Z,6.60
2022-11-24T07:58:38.653Z,6.59
2022-11-24T08:03:40.263Z,6.58
2022-11-24T08:08:41.615Z,6.58
2022-11-24T08:13:43.458Z,6.71
2022-11-24T08:18:49.026Z,6.92
2022-11-24T08:23:53.718Z,7.02
2022-11-24T08:28:58.593Z,7.08
2022-11-24T08:34:00.400Z,7.84
2022-11-24T08:39:02.189Z,9.38
2022-11-24T08:44:03.579Z,10.51
2022-11-24T08:49:06.444Z,9.49
2022-11-24T08:54:09.112Z,8.99
2022-11-24T08:59:14.212Z,11.18
2022-11-24T09:04:15.637Z,11.29
2022-11-24T09:09:17.861Z,11.54
2022-11-24T09:14:19.227Z,11.87
2022-11-24T09:19:20.549Z,12.55
2022-11-24T09:24:21.896Z,13.28
2022-11-24T09:29:23.217Z,13.35
2022-11-24T09:34:24.512Z,14.41
2022-11-24T09:39:25.840Z,12.10
2022-11-24T09:44:33.316Z,11.15
2022-11-24T09:49:51.789Z,13.53
2022-11-24T09:54:55.336Z,15.04
2022-11-24T10:00:01.538Z,12.61
2022-11-24T10:05:04.575Z,13.31
2022-11-24T10:10:29.637Z,12.07
2022-11-24T10:15:34.039Z,12.00
2022-11-24T10:20:54.012Z,11.92
2022-11-24T10:25:59.591Z,11.76
2022-11-24T10:31:16.199Z,11.92
2022-11-24T10:36:25.370Z,11.61
2022-11-24T10:41:35.748Z,12.82
2022-11-24T10:46:39.526Z,12.74
2022-11-24T10:51:47.544Z,12.86
2022-11-24T10:56:51.914Z,13.88
2022-11-24T11:01:53.291Z,13.51
2022-11-24T11:07:27.404Z,13.93
2022-11-24T11:12:45.736Z,13.72
2022-11-24T11:17:50.322Z,14.66
2022-11-24T11:22:51.746Z,14.92
2022-11-24T11:28:15.033Z,14.80
2022-11-24T11:38:47.000Z,15.04
2022-11-24T11:43:51.279Z,14.90
2022-11-24T11:48:52.921Z,14.54
2022-11-24T11:54:09.606Z,15.10
2022-11-24T11:59:29.798Z,15.60
2022-11-24T12:04:31.155Z,16.26
2022-11-24T12:09:35.889Z,14.83
2022-11-24T12:14:39.281Z,15.17
2022-11-24T12:20:13.297Z,15.13
2022-11-24T12:25:34.542Z,15.15
2022-11-24T12:30:41.445Z,15.40
2022-11-24T12:35:44.635Z,15.06
2022-11-24T12:41:39.805Z,15.86
2022-11-24T12:46:26.645Z,15.91
2022-11-24T12:51:31.238Z,15.69
2022-11-24T12:56:37.905Z,15.65
2022-11-24T13:01:46.706Z,14.99
2022-11-24T13:06:51.211Z,14.15
2022-11-24T13:11:53.267Z,14.07
2022-11-24T13:17:29.313Z,14.81
2022-11-24T13:22:25.987Z,14.23
2022-11-24T13:27:31.535Z,14.39
2022-11-24T13:32:32.824Z,14.16
2022-11-24T13:37:35.897Z,13.91
2022-11-24T13:43:01.341Z,13.89
2022-11-24T13:48:22.981Z,13.91
2022-11-24T13:53:33.534Z,13.66
2022-11-24T13:58:38.084Z,12.80
2022-11-24T14:09:42.116Z,12.61
2022-11-24T14:14:44.508Z,12.18
2022-11-24T14:19:47.889Z,12.11
2022-11-24T14:24:53.644Z,11.67
2022-11-24T14:29:56.122Z,11.34
2022-11-24T14:34:57.578Z,10.92
2022-11-24T14:39:58.935Z,10.82
2022-11-24T14:45:02.891Z,10.65
2022-11-24T14:50:11.432Z,10.46
2022-11-24T14:55:29.344Z,10.32
2022-11-24T15:00:31.960Z,9.84
2022-11-24T15:05:52.489Z,9.72
2022-11-24T15:11:03.976Z,9.73
2022-11-24T15:16:07.832Z,9.49
2022-11-24T15:21:14.124Z,9.33
2022-11-24T15:26:18.693Z,9.33
2022-11-24T15:31:20.111Z,9.19
2022-11-24T15:36:21.458Z,9.03
2022-11-24T15:41:26.481Z,8.72
2022-11-24T15:46:28.838Z,8.46
2022-11-24T15:51:30.645Z,8.11
2022-11-24T15:56:33.976Z,8.12
2022-11-24T16:01:35.528Z,7.90
2022-11-24T16:06:36.985Z,7.50
2022-11-24T16:11:38.306Z,7.46
2022-11-24T16:16:40.753Z,7.41
2022-11-24T16:21:42.164Z,7.54
2022-11-24T16:26:43.496Z,7.20
2022-11-24T16:31:47.135Z,6.97
2022-11-24T16:36:48.762Z,6.91
2022-11-24T16:41:51.843Z,6.92
2022-11-24T16:46:53.416Z,6.88
2022-11-24T16:51:54.713Z,7.00
2022-11-24T16:56:56.022Z,7.31
2022-11-24T17:01:57.471Z,7.37
2022-11-24T17:06:58.856Z,7.32
2022-11-24T17:12:00.201Z,7.42
2022-11-24T17:17:01.576Z,7.25
2022-11-24T17:22:03.067Z,7.23
2022-11-24T17:27:04.394Z,7.21
2022-11-24T17:32:05.790Z,7.10
2022-11-24T17:37:07.191Z,7.07
2022-11-24T17:42:08.515Z,7.04
2022-11-24T17:47:09.846Z,6.96
2022-11-24T17:52:11.241Z,6.88
2022-11-24T17:57:12.569Z,6.82
2022-11-24T18:02:14.013Z,6.77
2022-11-24T18:07:15.389Z,6.77
2022-11-24T18:12:16.875Z,6.67
2022-11-24T18:17:18.173Z,6.52
2022-11-24T18:22:36.751Z,6.56
2022-11-24T18:27:41.446Z,6.59
2022-11-24T18:32:42.894Z,6.55
2022-11-24T18:37:44.545Z,6.58
2022-11-24T18:42:45.894Z,6.53
2022-11-24T18:47:47.346Z,6.46
2022-11-24T18:52:48.797Z,6.35
2022-11-24T18:57:50.141Z,6.29
2022-11-24T19:02:52.119Z,6.36
2022-11-24T19:07:53.566Z,6.25
2022-11-24T19:12:55.826Z,6.23
2022-11-24T19:17:57.155Z,6.21
2022-11-24T19:22:58.457Z,6.26
2022-11-24T19:27:59.799Z,6.22
2022-11-24T19:33:01.125Z,6.18
2022-11-24T19:38:02.545Z,6.06
2022-11-24T19:43:03.936Z,5.99
2022-11-24T19:48:05.686Z,5.99
2022-11-24T19:53:07.025Z,5.89
2022-11-24T19:58:08.498Z,5.75
2022-11-24T20:03:09.820Z,5.64
2022-11-24T20:08:11.138Z,5.64
2022-11-24T20:13:12.528Z,5.66
2022-11-24T20:18:13.868Z,5.70
2022-11-24T20:23:15.202Z,5.64
2022-11-24T20:28:16.509Z,5.64
2022-11-24T20:33:17.895Z,5.59
2022-11-24T20:38:19.376Z,5.65
2022-11-24T20:43:20.719Z,5.69
2022-11-24T20:48:22.067Z,5.73
2022-11-24T20:53:23.580Z,5.66
2022-11-24T20:58:24.903Z,5.53
2022-11-24T21:03:26.260Z,5.64
2022-11-24T21:08:27.931Z,5.68
2022-11-24T21:13:31.667Z,5.71
2022-11-24T21:18:33.575Z,5.66
2022-11-24T21:23:34.972Z,5.67
2022-11-24T21:28:36.290Z,5.51
2022-11-24T21:33:42.103Z,5.50
2022-11-24T21:38:43.819Z,5.51
2022-11-24T21:43:45.334Z,5.53
2022-11-24T21:48:46.668Z,5.53
2022-11-24T21:53:48.070Z,5.46
2022-11-24T21:58:49.368Z,5.33
2022-11-24T22:03:51.056Z,5.35
2022-11-24T22:08:52.449Z,5.39
2022-11-24T22:13:53.866Z,5.36
2022-11-24T22:18:55.257Z,5.27
2022-11-24T22:23:56.605Z,5.27
2022-11-24T22:28:58.171Z,5.23
2022-11-24T22:34:00.215Z,5.24
2022-11-24T22:39:03.166Z,5.43
2022-11-24T22:44:05.116Z,5.57
2022-11-24T22:49:06.557Z,5.53
2022-11-24T22:54:11.452Z,5.54
2022-11-24T22:59:12.808Z,5.58
2022-11-24T23:04:14.206Z,5.54
2022-11-24T23:09:15.592Z,5.48
2022-11-24T23:14:16.971Z,5.52
2022-11-24T23:19:18.311Z,5.44
2022-11-24T23:24:19.622Z,5.49
2022-11-24T23:29:20.983Z,5.55
2022-11-24T23:34:22.474Z,5.42
2022-11-24T23:39:24.281Z,5.29
2022-11-24T23:44:26.849Z,5.27
2022-11-24T23:49:28.821Z,5.19
2022-11-24T23:54:30.206Z,5.17
2022-11-24T23:59:31.558Z,5.11
